Time;durP1;ratioP1;P1;durP2;ratioP2;P2;SDS_P1;SDS_P2;PMS_P1;PMS_P2;Temp;Humidity;BMP_temperature;BMP_pressure;BME280_temperature;BME280_humidity;BME280_pressure;Samples;Min_cycle;Max_cycle;Signal;HPM_P1;HPM_P2
2022/12/25 00:02:23;;;;;;;10.30;4.77;;;;;;;12.04;71.84;99157.28;5983538;24;20162;-88
2022/12/25 00:04:48;;;;;;;14.40;5.57;;;;;;;12.11;71.01;99158.59;5982375;24;20505;-88
2022/12/25 00:07:14;;;;;;;16.10;5.70;;;;;;;11.99;71.87;99161.09;5982351;23;20171;-88
2022/12/25 00:09:41;;;;;;;14.47;5.17;;;;;;;11.96;72.10;99169.16;5959017;24;20205;-88
2022/12/25 00:12:10;;;;;;;13.43;6.40;;;;;;;11.93;71.93;99172.81;5982822;24;20770;-88
2022/12/25 00:14:35;;;;;;;13.17;5.50;;;;;;;11.78;72.75;99178.94;5959102;24;20590;-88
2022/12/25 00:17:01;;;;;;;14.60;5.47;;;;;;;11.63;73.53;99185.84;5959183;24;20226;-88
2022/12/25 00:19:26;;;;;;;11.93;5.80;;;;;;;11.51;74.28;99188.31;5982543;24;20176;-88
2022/12/25 00:21:52;;;;;;;11.67;5.37;;;;;;;11.51;73.97;99183.06;5983298;24;20151;-87
2022/12/25 00:24:20;;;;;;;11.47;5.33;;;;;;;11.48;74.16;99189.34;5983633;24;20211;-88
2022/12/25 00:26:48;;;;;;;15.53;6.93;;;;;;;11.56;74.31;99194.16;5983240;24;20183;-88
2022/12/25 00:29:19;;;;;;;13.80;6.43;;;;;;;11.52;74.81;99201.38;5983045;24;20183;-87
2022/12/25 00:31:44;;;;;;;11.70;4.93;;;;;;;11.60;74.14;99204.44;5958840;24;20166;-88
2022/12/25 00:34:10;;;;;;;13.07;5.83;;;;;;;11.60;74.33;99195.69;5983528;24;20156;-88
2022/12/25 00:36:35;;;;;;;12.10;5.10;;;;;;;11.77;73.74;99200.00;5981436;24;20159;-88
2022/12/25 00:39:01;;;;;;;11.03;5.70;;;;;;;11.66;73.66;99195.38;5982920;24;20199;-87
2022/12/25 00:44:14;;;;;;;8.80;4.40;;;;;;;11.84;72.36;99199.63;5983929;24;20155;-88
2022/12/25 00:46:40;;;;;;;10.70;4.30;;;;;;;11.92;71.90;99207.06;5983700;24;20239;-88
2022/12/25 00:49:08;;;;;;;9.80;4.70;;;;;;;11.86;71.82;99199.50;5959307;24;20266;-88
2022/12/25 00:51:42;;;;;;;9.47;4.33;;;;;;;11.71;71.76;99199.44;5983394;24;20151;-88
2022/12/25 00:54:11;;;;;;;10.67;4.70;;;;;;;11.71;70.95;99195.97;5983563;24;20229;-91
2022/12/25 00:56:36;;;;;;;6.27;2.90;;;;;;;11.65;71.15;99197.13;5982361;24;20171;-88
2022/12/25 00:59:04;;;;;;;7.77;3.60;;;;;;;11.76;70.54;99196.56;5982026;24;20156;-88
2022/12/25 01:01:50;;;;;;;6.20;2.83;;;;;;;11.89;69.66;99196.72;5982437;24;20170;-89
2022/12/25 01:04:15;;;;;;;7.40;3.17;;;;;;;11.96;68.66;99200.69;5959920;24;20234;-88
2022/12/25 01:07:10;;;;;;;6.10;2.70;;;;;;;12.09;68.02;99192.00;5983542;24;20253;-88
2022/12/25 01:12:44;;;;;;;6.23;2.57;;;;;;;12.15;67.41;99199.56;5983517;24;20207;-91
2022/12/25 01:15:11;;;;;;;10.23;3.30;;;;;;;12.17;67.40;99202.06;5982988;24;20586;-90
2022/12/25 01:17:39;;;;;;;5.27;2.63;;;;;;;12.19;66.74;99203.69;5983619;24;20554;-88
2022/12/25 01:20:06;;;;;;;7.27;3.17;;;;;;;12.45;66.20;99217.91;5981887;24;20156;-88
2022/12/25 01:22:36;;;;;;;7.43;2.90;;;;;;;12.54;65.86;99214.75;5983254;24;20711;-88
2022/12/25 01:25:01;;;;;;;6.50;2.90;;;;;;;12.56;65.88;99215.50;5958507;24;20149;-88
2022/12/25 01:27:27;;;;;;;5.43;2.90;;;;;;;12.58;65.71;99226.78;5983274;24;20168;-88
2022/12/25 01:30:08;;;;;;;;;;;;;;;;;;;;;
2022/12/25 01:33:26;;;;;;;;;;;;;;;;;;;;;
2022/12/25 01:35:49;;;;;;;5.40;2.90;;;;;;;12.70;64.81;99222.59;5976346;24;20579;-88
2022/12/25 01:39:05;;;;;;;7.67;3.00;;;;;;;12.71;63.98;99230.38;5980122;24;20180;-89
2022/12/25 01:41:48;;;;;;;;;;;;;;;;;;;;;
2022/12/25 01:44:13;;;;;;;4.77;2.73;;;;;;;12.51;64.54;99222.81;5983367;24;20212;-88
2022/12/25 01:46:40;;;;;;;6.53;3.27;;;;;;;12.41;65.11;99221.69;5982054;23;20200;-88
2022/12/25 01:49:10;;;;;;;6.80;3.30;;;;;;;12.24;65.56;99221.78;5982768;24;20263;-89
2022/12/25 01:51:50;;;;;;;3.83;2.07;;;;;;;12.08;66.41;99234.16;5983518;24;20223;-88
2022/12/25 01:54:21;;;;;;;11.80;3.10;;;;;;;11.91;66.81;99227.22;5982766;24;20167;-87
2022/12/25 01:56:55;;;;;;;4.93;2.07;;;;;;;11.83;67.35;99226.78;5984574;24;20141;-88
2022/12/25 01:59:25;;;;;;;5.67;2.17;;;;;;;11.77;67.67;99224.50;5983362;24;20176;-88
2022/12/25 02:01:50;;;;;;;7.37;2.63;;;;;;;11.56;68.00;99210.75;5984837;24;20152;-88
2022/12/25 02:04:19;;;;;;;5.20;2.13;;;;;;;11.46;67.89;99213.97;5984600;24;20163;-87
2022/12/25 02:06:45;;;;;;;4.80;2.17;;;;;;;11.33;68.44;99224.31;5984464;24;20220;-86
2022/12/25 02:09:14;;;;;;;5.90;2.60;;;;;;;11.39;68.53;99229.22;5983286;24;20266;-88
2022/12/25 02:11:55;;;;;;;5.50;1.90;;;;;;;11.56;67.61;99223.88;5984458;24;20162;-87
2022/12/25 02:14:20;;;;;;;7.73;2.40;;;;;;;11.36;68.51;99228.53;5983296;24;20160;-88
2022/12/25 02:17:01;;;;;;;5.37;2.07;;;;;;;11.51;67.84;99231.16;5983406;24;20163;-89
2022/12/25 02:19:55;;;;;;;5.50;2.07;;;;;;;11.59;67.65;99231.59;5985099;24;20164;-88
2022/12/25 02:22:39;;;;;;;3.67;1.60;;;;;;;11.68;67.00;99225.88;5984837;24;20159;-88
2022/12/25 02:25:38;;;;;;;4.70;2.13;;;;;;;11.75;66.02;99230.78;5983432;24;20490;-88
2022/12/25 02:28:23;;;;;;;6.40;1.60;;;;;;;11.64;65.86;99239.22;5984729;24;20144;-88
2022/12/25 02:31:05;;;;;;;6.67;2.33;;;;;;;11.67;64.75;99239.91;5984869;24;20173;-88
2022/12/25 02:36:47;;;;;;;3.57;1.57;;;;;;;11.61;65.05;99234.13;5985094;24;20250;-88
2022/12/25 02:42:13;;;;;;;6.00;1.93;;;;;;;11.93;64.24;99224.50;5984354;24;20512;-89
2022/12/25 03:07:19;;;;;;;4.07;1.30;;;;;;;12.04;64.24;99253.63;5984568;24;20210;-89
2022/12/25 03:12:48;;;;;;;4.03;1.60;;;;;;;11.89;65.12;99254.50;5984709;24;20232;-88
2022/12/25 03:18:30;;;;;;;3.80;1.77;;;;;;;12.13;63.80;99266.25;5984755;24;20225;-88
2022/12/25 03:31:10;;;;;;;2.77;1.33;;;;;;;11.89;64.42;99267.63;5984421;24;20184;-88
2022/12/25 03:32:46;;;;;;;5.07;2.23;;;;;;;11.96;64.20;99263.72;5983813;24;20144;-88
2022/12/25 03:35:46;;;;;;;3.70;1.97;;;;;;;11.82;64.95;99274.16;5983970;24;20232;-88
2022/12/25 03:39:11;;;;;;;5.37;1.87;;;;;;;11.79;64.93;99272.56;5984115;24;20165;-89
2022/12/25 04:37:56;;;;;;;3.63;1.73;;;;;;;11.31;65.97;99335.53;5983603;24;20183;-88
2022/12/25 04:40:24;;;;;;;6.40;1.80;;;;;;;11.30;66.29;99339.91;5983299;24;20145;-89
2022/12/25 04:42:50;;;;;;;5.20;2.07;;;;;;;11.05;66.81;99334.25;5958814;24;20581;-88
2022/12/25 04:45:16;;;;;;;3.77;1.87;;;;;;;10.81;67.87;99353.84;5983165;24;20165;-88
2022/12/25 04:47:41;;;;;;;4.53;1.83;;;;;;;10.99;67.46;99347.69;5981998;24;20271;-88
2022/12/25 04:50:07;;;;;;;3.63;1.50;;;;;;;11.01;67.15;99351.06;5983306;24;20679;-88
2022/12/25 04:52:37;;;;;;;4.93;1.83;;;;;;;11.10;66.76;99358.47;5983805;24;20620;-88
2022/12/25 04:55:05;;;;;;;4.20;1.93;;;;;;;10.95;67.30;99372.38;5983096;24;20630;-88
2022/12/25 04:57:31;;;;;;;3.70;1.87;;;;;;;11.09;67.02;99368.13;5983705;24;20238;-87
2022/12/25 04:59:56;;;;;;;3.97;1.57;;;;;;;11.16;66.25;99373.91;5983013;24;20568;-87
2022/12/25 05:02:22;;;;;;;2.97;1.63;;;;;;;11.25;65.93;99370.81;5983136;24;20163;-88
2022/12/25 05:04:47;;;;;;;6.17;1.83;;;;;;;11.18;66.01;99377.31;5981910;24;20164;-86
2022/12/25 05:07:13;;;;;;;2.90;1.90;;;;;;;11.31;65.98;99380.13;5984024;24;20163;-88
2022/12/25 05:09:41;;;;;;;5.53;1.77;;;;;;;11.31;65.93;99378.38;5982981;24;20215;-88
2022/12/25 05:12:10;;;;;;;4.97;1.93;;;;;;;11.20;66.30;99391.19;5982171;24;20595;-88
2022/12/25 05:14:35;;;;;;;5.27;2.00;;;;;;;11.16;66.28;99389.66;5983011;24;20216;-88
2022/12/25 05:17:01;;;;;;;6.37;2.00;;;;;;;11.24;66.29;99397.13;5983335;24;20524;-88
2022/12/25 05:19:27;;;;;;;7.77;2.53;;;;;;;11.28;65.64;99388.16;5981789;24;20164;-87
2022/12/25 05:21:53;;;;;;;4.87;2.20;;;;;;;11.11;66.53;99389.00;5958832;24;20165;-87
2022/12/25 05:24:27;;;;;;;5.90;2.57;;;;;;;11.28;65.57;99389.03;5959606;24;20175;-89
2022/12/25 05:27:15;;;;;;;3.33;2.00;;;;;;;11.29;65.79;99395.97;5983303;24;20206;-89
2022/12/25 05:29:43;;;;;;;3.73;1.93;;;;;;;11.09;66.34;99404.00;5983169;24;20194;-89
2022/12/25 05:32:11;;;;;;;5.33;2.13;;;;;;;11.19;65.93;99405.22;5984820;24;20172;-89
2022/12/25 05:34:36;;;;;;;2.80;1.40;;;;;;;11.25;65.75;99399.66;5985164;24;20151;-88
2022/12/25 05:37:02;;;;;;;5.47;2.03;;;;;;;11.20;65.90;99406.94;5985463;24;20222;-88
2022/12/25 05:39:28;;;;;;;5.03;2.20;;;;;;;11.24;65.70;99413.69;5985012;24;20249;-89
2022/12/25 05:41:53;;;;;;;4.57;1.80;;;;;;;11.29;65.28;99416.97;5985313;24;20595;-88
2022/12/25 05:44:21;;;;;;;3.70;1.63;;;;;;;11.22;65.71;99420.81;5983761;24;20580;-89
2022/12/25 05:46:49;;;;;;;5.23;2.17;;;;;;;10.76;67.34;99427.50;5985371;24;20152;-89
2022/12/25 05:49:15;;;;;;;4.33;2.33;;;;;;;10.91;66.48;99428.50;5960279;24;20226;-89
2022/12/25 05:51:40;;;;;;;4.70;2.00;;;;;;;11.09;66.21;99435.47;5984788;24;20152;-89
2022/12/25 05:54:06;;;;;;;6.50;2.23;;;;;;;11.08;65.90;99436.41;5984903;24;20153;-89
2022/12/25 05:56:34;;;;;;;5.20;2.17;;;;;;;11.30;65.12;99433.53;5984700;24;20157;-89
2022/12/25 05:58:59;;;;;;;5.43;2.50;;;;;;;11.39;64.47;99436.56;5984663;24;20153;-89
2022/12/25 06:01:27;;;;;;;6.33;2.20;;;;;;;11.29;65.01;99448.47;5985034;24;20168;-89
2022/12/25 06:03:52;;;;;;;3.03;1.67;;;;;;;11.42;64.45;99446.91;5984939;24;20160;-89
2022/12/25 06:06:18;;;;;;;6.17;2.60;;;;;;;11.30;64.66;99446.66;5983424;24;20164;-89
2022/12/25 06:08:54;;;;;;;4.23;2.00;;;;;;;11.18;65.21;99460.41;5960207;24;20175;-89
2022/12/25 06:11:28;;;;;;;6.80;2.90;;;;;;;11.41;63.75;99458.31;5983255;24;20166;-89
2022/12/25 06:14:00;;;;;;;6.03;2.70;;;;;;;11.27;64.43;99459.97;5984083;24;20210;-89
2022/12/25 06:16:25;;;;;;;5.53;2.40;;;;;;;11.29;64.27;99469.44;5983476;24;20160;-89
2022/12/25 06:18:51;;;;;;;6.93;2.00;;;;;;;11.48;63.72;99474.59;5960622;24;20187;-89
2022/12/25 06:21:39;;;;;;;7.17;2.40;;;;;;;11.60;63.27;99479.25;5985181;24;20179;-89
2022/12/25 06:24:07;;;;;;;4.73;1.90;;;;;;;11.62;63.20;99483.47;5985066;24;20144;-89
2022/12/25 06:26:49;;;;;;;8.83;2.20;;;;;;;11.60;62.80;99485.34;5983449;24;20164;-90
2022/12/25 06:29:33;;;;;;;5.47;2.03;;;;;;;11.57;63.10;99489.91;5984440;24;20180;-90
2022/12/25 06:32:13;;;;;;;4.23;1.73;;;;;;;11.62;62.52;99487.88;5985133;24;20154;-90
2022/12/25 06:34:48;;;;;;;;;;;;;;;;;;;;;
2022/12/25 06:37:14;;;;;;;4.60;2.13;;;;;;;11.80;62.54;99501.88;5985379;24;20216;-88
2022/12/25 06:39:47;;;;;;;3.90;1.87;;;;;;;12.13;61.79;99500.94;5983090;24;20229;-90
2022/12/25 06:42:15;;;;;;;6.50;2.30;;;;;;;12.51;60.15;99496.28;5984312;24;20162;-89
2022/12/25 06:45:31;;;;;;;;;;;;;;;;;;;;;
2022/12/25 06:48:39;;;;;;;3.33;2.07;;;;;;;13.71;55.95;99506.03;5869988;24;20239;-90
2022/12/25 06:54:36;;;;;;;4.23;1.93;;;;;;;13.20;56.70;99512.56;5973751;24;20157;-90
2022/12/25 07:03:20;;;;;;;4.67;1.83;;;;;;;13.04;58.19;99532.75;5913429;24;20211;-89
2022/12/25 07:10:15;;;;;;;4.37;2.10;;;;;;;13.52;56.36;99526.50;5860726;24;20299;-90
2022/12/25 07:16:49;;;;;;;6.10;2.33;;;;;;;13.39;56.28;99533.44;5974220;24;20268;-91
2022/12/25 07:20:44;;;;;;;;;;;;;;;;;;;;;
2022/12/25 07:24:09;;;;;;;;;;;;;;;;;;;;;
2022/12/25 07:26:35;;;;;;;5.40;2.37;;;;;;;12.84;58.14;99541.75;5959280;24;20238;-90
2022/12/25 07:29:01;;;;;;;4.77;1.73;;;;;;;12.81;58.36;99548.97;5984220;24;20245;-90
2022/12/25 07:38:51;;;;;;;5.13;2.30;;;;;;;12.98;58.78;99555.91;5873633;24;20291;-90
2022/12/25 07:41:21;;;;;;;2.57;1.47;;;;;;;12.90;59.02;99556.34;5841071;24;20185;-91
2022/12/25 07:44:13;;;;;;;3.83;2.30;;;;;;;13.06;58.83;99566.88;5943271;24;20602;-89
2022/12/25 07:47:19;;;;;;;3.97;1.87;;;;;;;13.11;58.86;99565.72;5926034;24;20246;-90
2022/12/25 08:21:04;;;;;;;2.90;1.50;;;;;;;13.86;55.24;99596.50;5715012;25;20176;-93
2022/12/25 08:34:39;;;;;;;4.03;1.33;;;;;;;14.44;51.83;99594.75;5664748;25;20177;-92
2022/12/25 08:37:34;;;;;;;2.73;1.20;;;;;;;14.40;51.39;99603.78;5674491;25;20256;-90
2022/12/25 08:51:39;;;;;;;;;;;;;;;;;;;;;
2022/12/25 08:54:55;;;;;;;;;;;;;;;;;;;;;
2022/12/25 08:57:30;;;;;;;2.30;1.10;;;;;;;15.30;48.63;99615.66;5690585;25;20247;-93
2022/12/25 09:00:24;;;;;;;1.77;1.03;;;;;;;15.23;47.88;99617.00;5740298;25;20164;-92
2022/12/25 09:07:10;;;;;;;;;;;;;;;;;;;;;
2022/12/25 09:10:49;;;;;;;2.63;1.30;;;;;;;15.21;48.29;99618.91;5756364;24;20287;-91
2022/12/25 09:23:57;;;;;;;5.70;1.63;;;;;;;15.33;47.07;99615.47;5672707;25;20181;-91
2022/12/25 09:26:26;;;;;;;7.13;1.53;;;;;;;15.43;46.43;99609.63;5656072;25;20167;-90
2022/12/25 09:28:51;;;;;;;2.90;1.23;;;;;;;15.63;46.79;99609.19;5667000;24;20249;-90
2022/12/25 09:31:24;;;;;;;3.93;1.67;;;;;;;15.63;46.49;99604.75;5836531;24;20229;-90
2022/12/25 09:33:56;;;;;;;3.90;1.43;;;;;;;15.77;45.92;99601.22;5841826;24;20163;-88
2022/12/25 09:44:23;;;;;;;4.23;1.63;;;;;;;16.41;45.46;99605.63;5736087;25;20560;-92
2022/12/25 09:47:01;;;;;;;3.57;1.73;;;;;;;16.42;44.83;99602.88;5798393;24;20163;-91
2022/12/25 09:49:54;;;;;;;2.23;0.90;;;;;;;16.29;44.45;99609.97;5818493;24;20179;-90
2022/12/25 09:53:04;;;;;;;2.37;1.00;;;;;;;16.54;44.70;99604.69;5838885;24;20200;-93
2022/12/25 09:59:02;;;;;;;4.00;1.63;;;;;;;16.56;45.82;99592.19;5869386;24;20166;-92
2022/12/25 10:02:21;;;;;;;;;;;;;;;;;;;;;
2022/12/25 10:05:05;;;;;;;4.27;1.10;;;;;;;16.91;43.07;99591.53;5872148;24;20232;-92
2022/12/25 10:07:54;;;;;;;2.20;1.10;;;;;;;16.70;43.37;99587.75;5884930;24;20165;-91
2022/12/25 10:14:10;;;;;;;4.30;1.20;;;;;;;16.61;42.31;99591.91;5893588;24;20180;-91
2022/12/25 10:17:06;;;;;;;3.67;0.93;;;;;;;16.40;44.14;99598.66;5900265;24;20241;-92
2022/12/25 10:20:36;;;;;;;;;;;;;;;;;;;;;
2022/12/25 10:29:31;;;;;;;3.03;1.30;;;;;;;17.07;44.52;99594.78;5846260;24;20587;-93
2022/12/25 10:32:32;;;;;;;2.00;0.67;;;;;;;16.99;42.60;99586.53;5823792;24;20165;-92
2022/12/25 10:38:16;;;;;;;4.37;1.60;;;;;;;17.05;42.63;99594.91;5779267;24;20264;-90
2022/12/25 10:41:24;;;;;;;;;;;;;;;;;;;;;
2022/12/25 10:43:58;;;;;;;2.43;1.30;;;;;;;16.88;43.53;99597.03;5766815;24;20271;-90
2022/12/25 10:47:09;;;;;;;3.33;1.20;;;;;;;17.25;43.15;99587.28;5793709;24;20156;-91
2022/12/25 10:50:27;;;;;;;2.60;0.90;;;;;;;17.24;41.96;99598.88;5801004;24;20191;-91
2022/12/25 10:53:30;;;;;;;2.63;0.97;;;;;;;16.98;41.38;99601.56;5818901;24;20161;-90
2022/12/25 10:56:51;;;;;;;2.80;0.97;;;;;;;17.25;41.42;99593.44;5877273;24;20166;-93
2022/12/25 10:59:26;;;;;;;5.57;1.17;;;;;;;17.22;40.04;99588.38;5852932;24;20258;-91
2022/12/25 11:04:42;;;;;;;2.77;1.00;;;;;;;17.52;40.46;99586.13;5872016;24;20166;-90
2022/12/25 11:08:03;;;;;;;2.00;0.90;;;;;;;17.54;40.89;99589.53;5928096;24;20165;-93
2022/12/25 11:11:28;;;;;;;5.20;0.63;;;;;;;17.34;41.39;99578.69;5845151;24;20221;-91
2022/12/25 11:14:00;;;;;;;1.67;0.73;;;;;;;17.25;39.76;99582.00;5845704;24;20162;-90
2022/12/25 11:16:41;;;;;;;2.70;1.00;;;;;;;17.34;39.77;99568.94;5867942;24;20173;-91
2022/12/25 11:22:44;;;;;;;2.13;0.67;;;;;;;17.46;40.13;99568.03;5853899;24;20165;-92
2022/12/25 11:29:48;;;;;;;1.60;0.90;;;;;;;17.73;39.33;99558.06;5790351;24;20168;-91
2022/12/25 11:33:10;;;;;;;4.37;1.13;;;;;;;17.62;40.13;99579.22;5792451;24;20176;-92
2022/12/25 11:36:37;;;;;;;1.10;0.60;;;;;;;17.87;40.22;99567.63;5788892;24;20613;-92
2022/12/25 11:39:53;;;;;;;;;;;;;;;;;;;;;
2022/12/25 11:46:24;;;;;;;2.03;0.70;;;;;;;17.55;38.89;99562.09;5805068;24;20696;-91
2022/12/25 11:52:56;;;;;;;1.90;0.83;;;;;;;18.07;37.87;99569.59;5714372;25;20236;-91
2022/12/25 11:55:43;;;;;;;2.20;0.70;;;;;;;17.63;38.16;99575.63;5710111;25;20186;-92
2022/12/25 11:59:03;;;;;;;1.53;0.60;;;;;;;17.36;39.17;99576.75;5671431;25;20242;-89
2022/12/25 12:02:33;;;;;;;2.70;0.47;;;;;;;17.24;38.88;99578.53;5662969;25;20220;-90
2022/12/25 12:09:01;;;;;;;1.67;0.50;;;;;;;17.80;39.24;99582.28;5712034;25;20176;-91
2022/12/25 12:28:48;;;;;;;3.17;0.80;;;;;;;17.93;37.74;99582.22;5797711;24;20215;-90
2022/12/25 12:31:53;;;;;;;1.90;0.90;;;;;;;17.65;38.25;99586.94;5834900;24;20201;-91
2022/12/25 12:34:58;;;;;;;3.37;1.23;;;;;;;17.77;39.17;99575.41;5845338;24;20270;-91
2022/12/25 12:37:54;;;;;;;4.27;0.60;;;;;;;17.61;38.84;99572.22;5845236;24;20169;-91
2022/12/25 12:43:45;;;;;;;1.23;0.60;;;;;;;18.07;39.44;99574.06;5892099;24;20654;-91
2022/12/25 12:56:37;;;;;;;1.37;0.40;;;;;;;17.91;37.50;99581.50;5871948;24;20251;-90
2022/12/25 12:59:10;;;;;;;2.07;0.63;;;;;;;17.72;37.05;99590.81;5872152;24;20161;-91
2022/12/25 13:05:52;;;;;;;1.50;0.53;;;;;;;18.09;36.90;99585.41;5847886;24;20254;-93
2022/12/25 13:12:59;;;;;;;2.23;1.00;;;;;;;18.03;37.85;99597.31;5937414;24;20656;-91
2022/12/25 13:47:16;;;;;;;;;;;;;;;;;;;;;
2022/12/25 14:00:13;;;;;;;3.03;0.90;;;;;;;17.61;38.66;99609.31;5723746;25;20256;-90
2022/12/25 14:10:33;;;;;;;;;;;;;;;;;;;;;
2022/12/25 14:19:33;;;;;;;4.27;1.87;;;;;;;17.44;39.54;99628.25;5664837;25;20174;-91
2022/12/25 14:25:48;;;;;;;3.20;1.17;;;;;;;17.28;39.81;99640.91;5689025;25;20163;-92
2022/12/25 15:43:22;;;;;;;5.13;1.33;;;;;;;15.75;43.88;99733.44;5601508;25;20490;-90
2022/12/25 15:46:22;;;;;;;;;;;;;;;;;;;;;
2022/12/25 16:13:20;;;;;;;;;;;;;;;;;;;;;
2022/12/25 16:16:03;;;;;;;;;;;;;;;;;;;;;
2022/12/25 16:25:37;;;;;;;;;;;;;;;;;;;;;
2022/12/25 16:32:34;;;;;;;;;;;;;;;;;;;;;
2022/12/25 16:35:46;;;;;;;7.70;2.67;;;;;;;14.78;45.35;99757.13;5643974;24;20372;-91
2022/12/25 16:39:06;;;;;;;5.67;2.97;;;;;;;14.65;45.29;99757.03;5713465;25;20174;-92
2022/12/25 16:42:39;;;;;;;;;;;;;;;;;;;;;
2022/12/25 16:45:41;;;;;;;;;;;;;;;;;;;;;
2022/12/25 16:56:14;;;;;;;;;;;;;;;;;;;;;
2022/12/25 16:59:34;;;;;;;;;;;;;;;;;;;;;
2022/12/25 17:02:54;;;;;;;;;;;;;;;;;;;;;
2022/12/25 17:10:28;;;;;;;;;;;;;;;;;;;;;
2022/12/25 17:16:30;;;;;;;10.67;1.97;;;;;;;13.25;47.01;99804.50;5508909;25;20637;-88
2022/12/25 17:19:00;;;;;;;4.80;1.97;;;;;;;13.12;47.21;99806.09;5483923;26;20201;-88
2022/12/25 17:21:29;;;;;;;7.87;2.37;;;;;;;13.03;47.85;99814.41;5612506;25;20168;-88
2022/12/25 17:23:56;;;;;;;12.37;2.93;;;;;;;12.87;48.18;99820.47;5641679;25;20253;-89
2022/12/25 17:26:23;;;;;;;6.83;2.50;;;;;;;12.72;48.60;99821.25;5851082;24;20180;-88
2022/12/25 17:28:50;;;;;;;6.73;2.43;;;;;;;12.63;49.00;99821.69;5954777;24;20147;-88
2022/12/25 17:31:17;;;;;;;7.80;3.70;;;;;;;12.69;48.54;99826.66;5951974;23;20201;-88
2022/12/25 17:33:43;;;;;;;28.57;10.07;;;;;;;12.70;49.11;99830.16;6016243;23;20170;-88
2022/12/25 17:36:20;;;;;;;37.77;15.53;;;;;;;12.78;nan;99825.38;6040352;23;20165;-88
2022/12/25 17:38:47;;;;;;;22.80;7.67;;;;;;;12.90;48.72;99830.84;6015983;23;20145;-88
2022/12/25 17:41:19;;;;;;;20.97;8.07;;;;;;;12.79;48.67;99832.31;6016220;23;20577;-88
2022/12/25 17:43:46;;;;;;;20.13;8.67;;;;;;;12.73;48.93;99827.38;6041150;23;20181;-88
2022/12/25 17:46:21;;;;;;;19.17;8.50;;;;;;;12.78;49.18;99836.75;6015781;23;20590;-88
2022/12/25 17:48:48;;;;;;;21.23;8.73;;;;;;;12.58;49.29;99833.41;6040774;23;20148;-89
2022/12/25 17:51:20;;;;;;;21.57;9.07;;;;;;;12.62;49.93;99834.94;6040689;23;20243;-88
2022/12/25 17:53:49;;;;;;;19.07;8.37;;;;;;;12.40;50.23;99845.66;6015921;23;20173;-88
2022/12/25 17:56:17;;;;;;;19.97;8.97;;;;;;;12.24;51.02;99831.53;6040333;23;20650;-88
2022/12/25 17:58:52;;;;;;;17.87;8.67;;;;;;;12.14;51.50;99844.28;6015982;23;20165;-88
2022/12/25 18:01:20;;;;;;;17.13;6.90;;;;;;;12.15;51.31;99842.53;6040289;23;20133;-88
2022/12/25 18:03:46;;;;;;;18.27;7.70;;;;;;;12.00;51.39;99851.97;6038289;23;20240;-88
2022/12/25 18:06:16;;;;;;;13.50;6.77;;;;;;;11.88;51.91;99846.44;6040890;23;20157;-88
2022/12/25 18:08:45;;;;;;;19.30;8.40;;;;;;;11.84;52.24;99851.00;6040369;23;20207;-87
2022/12/25 18:11:19;;;;;;;22.03;8.27;;;;;;;11.83;52.72;99853.69;6039150;23;20179;-88
2022/12/25 18:13:50;;;;;;;14.20;6.50;;;;;;;11.78;52.33;99850.41;6040549;23;20149;-87
2022/12/25 18:16:19;;;;;;;19.00;8.50;;;;;;;11.70;52.78;99863.91;6040154;23;20166;-88
2022/12/25 18:18:45;;;;;;;20.93;8.73;;;;;;;11.67;52.90;99862.22;6040506;23;20152;-87
2022/12/25 18:21:12;;;;;;;18.10;7.13;;;;;;;11.78;53.04;99866.16;6041005;23;20163;-88
2022/12/25 18:23:38;;;;;;;18.43;9.07;;;;;;;11.85;52.33;99864.97;6015785;23;20311;-88
2022/12/25 18:26:08;;;;;;;19.70;7.63;;;;;;;11.79;52.71;99867.88;6040764;23;20195;-87
2022/12/25 18:29:07;;;;;;;21.53;6.80;;;;;;;11.65;53.36;99868.47;6015956;23;20163;-87
2022/12/25 18:31:34;;;;;;;14.97;4.73;;;;;;;11.70;53.26;99872.63;6040291;23;20198;-88
2022/12/25 18:34:01;;;;;;;10.40;5.03;;;;;;;11.67;53.52;99874.50;6040361;23;20179;-87
2022/12/25 18:36:28;;;;;;;16.50;4.83;;;;;;;11.66;53.23;99883.31;6039913;23;20156;-87
2022/12/25 18:38:56;;;;;;;12.50;4.77;;;;;;;11.71;53.44;99884.81;6012825;23;20206;-87
2022/12/25 18:41:22;;;;;;;19.43;6.23;;;;;;;11.69;53.15;99888.44;6011490;23;20260;-88
2022/12/25 18:43:49;;;;;;;26.27;9.53;;;;;;;11.62;53.24;99882.59;6039824;23;20152;-88
2022/12/25 18:46:16;;;;;;;16.73;6.53;;;;;;;11.61;53.00;99885.28;6039990;23;20157;-88
2022/12/25 18:48:44;;;;;;;15.63;6.93;;;;;;;11.58;52.93;99899.41;6040270;23;20174;-88
2022/12/25 18:51:12;;;;;;;16.83;7.40;;;;;;;11.48;53.06;99903.34;6039870;23;20190;-88
2022/12/25 18:53:40;;;;;;;26.90;11.73;;;;;;;11.41;52.98;99908.94;6039843;23;20618;-87
2022/12/25 18:56:15;;;;;;;31.23;12.87;;;;;;;11.32;52.77;99912.81;5992114;23;20169;-87
2022/12/25 18:58:42;;;;;;;28.17;12.93;;;;;;;11.25;52.37;99914.00;6036218;23;20166;-88
2022/12/25 19:01:12;;;;;;;28.33;13.10;;;;;;;11.28;52.50;99902.50;6039925;23;20175;-88
2022/12/25 19:03:39;;;;;;;29.73;13.20;;;;;;;11.26;52.58;99897.34;6040060;23;20159;-88
2022/12/25 19:06:06;;;;;;;23.57;11.90;;;;;;;11.22;52.52;99908.03;6039662;23;20234;-88
2022/12/25 19:08:31;;;;;;;24.10;12.60;;;;;;;10.98;53.51;99912.53;6039411;23;20221;-88
2022/12/25 19:11:07;;;;;;;28.60;13.33;;;;;;;10.85;53.96;99924.44;6014831;23;20207;-87
2022/12/25 19:13:37;;;;;;;30.63;13.43;;;;;;;10.60;54.59;99927.22;5989995;23;20493;-87
2022/12/25 19:16:04;;;;;;;34.90;16.17;;;;;;;10.52;54.82;99924.06;6039398;23;20217;-87
2022/12/25 19:18:31;;;;;;;31.77;14.83;;;;;;;10.53;55.21;99927.53;6040014;23;20159;-87
2022/12/25 19:21:17;;;;;;;28.27;14.00;;;;;;;10.42;55.60;99917.47;6040065;23;20300;-87
2022/12/25 19:23:44;;;;;;;26.57;12.97;;;;;;;10.42;55.97;99918.34;6039738;23;20169;-87
2022/12/25 19:26:11;;;;;;;32.23;14.30;;;;;;;10.35;55.91;99927.34;6040079;23;20399;-87
2022/12/25 19:28:40;;;;;;;33.37;14.10;;;;;;;10.29;55.96;99927.59;6039814;23;20154;-87
2022/12/25 19:31:08;;;;;;;30.00;14.60;;;;;;;10.36;55.66;99929.06;6038541;23;20225;-87
2022/12/25 19:33:38;;;;;;;27.93;13.17;;;;;;;10.31;55.86;99933.63;6039522;23;20149;-88
2022/12/25 19:36:10;;;;;;;29.50;13.23;;;;;;;10.11;56.59;99936.13;6040021;23;20614;-87
2022/12/25 19:38:37;;;;;;;28.83;13.60;;;;;;;10.03;57.15;99927.72;6038318;23;20241;-86
2022/12/25 19:41:30;;;;;;;21.90;10.97;;;;;;;9.86;58.02;99925.72;6038252;23;20161;-87
2022/12/25 19:43:57;;;;;;;33.43;11.83;;;;;;;9.80;58.44;99925.09;6035265;23;20254;-87
2022/12/25 19:46:27;;;;;;;25.17;11.57;;;;;;;9.72;58.93;99930.59;6039422;23;20233;-87
2022/12/25 19:48:54;;;;;;;31.27;13.57;;;;;;;9.62;59.06;99923.97;6037727;23;20150;-87
2022/12/25 19:51:32;;;;;;;24.13;11.20;;;;;;;9.50;59.72;99915.72;6039252;23;20182;-87
2022/12/25 19:53:59;;;;;;;24.17;11.47;;;;;;;9.56;60.06;99923.34;6014813;23;20218;-87
2022/12/25 19:56:26;;;;;;;20.77;10.07;;;;;;;9.63;60.21;99933.56;6039980;23;20150;-88
2022/12/25 19:58:56;;;;;;;21.93;10.63;;;;;;;9.71;60.25;99951.59;6037924;23;20177;-88
2022/12/25 20:01:25;;;;;;;17.93;8.73;;;;;;;9.58;60.34;99956.41;6039893;23;20165;-87
2022/12/25 20:03:53;;;;;;;14.37;7.47;;;;;;;9.35;61.10;99947.66;6039446;23;20149;-86
2022/12/25 20:06:30;;;;;;;15.10;6.37;;;;;;;9.35;61.98;99937.19;6014546;23;20162;-87
2022/12/25 20:08:58;;;;;;;14.17;5.60;;;;;;;9.30;61.93;99939.13;6014588;23;20630;-87
2022/12/25 20:11:33;;;;;;;7.87;4.30;;;;;;;9.30;62.02;99949.59;6014540;23;20198;-85
2022/12/25 20:14:00;;;;;;;9.00;4.43;;;;;;;9.30;62.48;99944.34;6039309;23;20507;-85
2022/12/25 20:16:29;;;;;;;11.30;4.87;;;;;;;9.45;61.73;99944.69;6014747;23;20157;-85
2022/12/25 20:18:56;;;;;;;9.23;4.40;;;;;;;9.60;61.18;99945.88;6038952;23;20157;-85
2022/12/25 20:21:26;;;;;;;7.20;3.77;;;;;;;9.64;60.80;99947.50;6014203;23;20306;-84
2022/12/25 20:23:52;;;;;;;9.77;3.87;;;;;;;9.67;60.29;99948.22;6038863;23;20194;-85
2022/12/25 20:26:22;;;;;;;9.73;3.63;;;;;;;9.71;60.17;99941.97;6039811;23;20177;-85
2022/12/25 20:28:48;;;;;;;8.67;3.73;;;;;;;9.75;60.02;99938.31;6039513;23;20157;-86
2022/12/25 20:31:23;;;;;;;5.30;2.97;;;;;;;9.84;59.92;99938.00;6039419;23;20178;-85
2022/12/25 20:33:48;;;;;;;7.40;3.40;;;;;;;9.96;59.60;99941.91;6039574;23;20141;-85
2022/12/25 20:36:15;;;;;;;5.63;3.27;;;;;;;9.85;59.45;99946.72;6039481;23;20478;-85
2022/12/25 20:38:40;;;;;;;7.40;3.20;;;;;;;9.58;60.09;99952.94;6014516;23;20154;-85
2022/12/25 20:41:09;;;;;;;10.13;3.23;;;;;;;9.56;60.41;99958.25;6039403;23;20145;-85
2022/12/25 20:43:36;;;;;;;4.53;2.37;;;;;;;9.43;60.72;99958.72;6039358;23;20209;-85
2022/12/25 20:46:02;;;;;;;4.53;2.03;;;;;;;9.24;61.34;99966.34;6039727;23;20555;-85
2022/12/25 20:48:27;;;;;;;4.43;2.47;;;;;;;9.20;61.99;99970.81;6039342;23;20161;-85